createdAt,value
2018-06-28T00:00:17.816Z,22.58
2018-06-28T00:02:46.786Z,22.78
2018-06-28T00:05:15.773Z,22.77
2018-06-28T00:07:44.702Z,22.76
2018-06-28T00:10:13.682Z,22.82
2018-06-28T00:12:42.655Z,22.43
2018-06-28T00:15:11.646Z,22.58
2018-06-28T00:17:40.595Z,22.71
2018-06-28T00:20:09.616Z,22.72
2018-06-28T00:22:38.559Z,22.63
2018-06-28T00:25:07.547Z,22.56
2018-06-28T00:27:36.526Z,22.39
2018-06-28T00:30:06.170Z,22.32
2018-06-28T00:32:35.118Z,22.34
2018-06-28T00:35:04.093Z,22.22
2018-06-28T00:37:33.043Z,22.09
2018-06-28T00:40:02.017Z,21.90
2018-06-28T00:42:30.962Z,21.81
2018-06-28T00:44:59.958Z,21.69
2018-06-28T00:47:28.888Z,21.74
2018-06-28T00:49:57.879Z,22.01
2018-06-28T00:52:26.854Z,22.08
2018-06-28T00:54:55.874Z,22.23
2018-06-28T00:57:24.827Z,22.22
2018-06-28T00:59:53.811Z,21.75
2018-06-28T01:02:22.764Z,21.86
2018-06-28T01:04:51.719Z,21.87
2018-06-28T01:07:20.724Z,21.53
2018-06-28T01:09:49.725Z,21.63
2018-06-28T01:12:18.746Z,21.68
2018-06-28T01:14:47.675Z,21.81
2018-06-28T01:17:16.668Z,21.76
2018-06-28T01:19:45.619Z,21.64
2018-06-28T01:22:14.622Z,21.44
2018-06-28T01:24:43.589Z,21.13
2018-06-28T01:27:13.434Z,21.30
2018-06-28T01:29:42.378Z,21.33
2018-06-28T01:32:11.362Z,21.43
2018-06-28T01:34:40.335Z,21.45
2018-06-28T01:37:09.355Z,21.40
2018-06-28T01:39:38.326Z,21.48
2018-06-28T01:42:18.250Z,21.43
2018-06-28T01:44:47.215Z,21.37
2018-06-28T01:47:16.274Z,21.39
2018-06-28T01:49:45.211Z,21.46
2018-06-28T01:52:14.222Z,21.44
2018-06-28T01:54:43.175Z,21.31
2018-06-28T01:57:12.185Z,20.84
2018-06-28T01:59:41.118Z,21.16
2018-06-28T02:02:10.085Z,20.97
2018-06-28T02:04:39.055Z,21.12
2018-06-28T02:07:08.053Z,20.98
2018-06-28T02:09:37.007Z,20.89
2018-06-28T02:12:06.035Z,20.97
2018-06-28T02:14:34.943Z,21.00
2018-06-28T02:17:03.928Z,20.91
2018-06-28T02:19:32.826Z,20.93
2018-06-28T02:22:01.791Z,20.92
2018-06-28T02:24:30.763Z,21.06
2018-06-28T02:26:59.675Z,20.96
2018-06-28T02:29:28.622Z,20.94
2018-06-28T02:31:57.534Z,20.67
2018-06-28T02:34:26.494Z,20.62
2018-06-28T02:36:55.383Z,20.61
2018-06-28T02:39:24.381Z,20.63
2018-06-28T02:41:53.273Z,20.46
2018-06-28T02:44:22.234Z,20.29
2018-06-28T02:46:51.178Z,20.32
2018-06-28T02:49:20.144Z,20.20
2018-06-28T02:51:49.053Z,20.18
2018-06-28T02:54:18.016Z,20.20
2018-06-28T02:56:46.965Z,20.16
2018-06-28T02:59:15.974Z,20.18
2018-06-28T03:01:44.870Z,20.01
2018-06-28T03:04:13.931Z,20.13
2018-06-28T03:06:42.911Z,20.20
2018-06-28T03:09:12.613Z,20.22
2018-06-28T03:11:41.541Z,20.08
2018-06-28T03:14:10.535Z,20.09
2018-06-28T03:16:39.576Z,19.91
2018-06-28T03:19:08.562Z,20.12
2018-06-28T03:21:37.493Z,20.27
2018-06-28T03:24:06.671Z,20.33
2018-06-28T03:26:35.578Z,20.30
2018-06-28T03:29:04.545Z,20.31
2018-06-28T03:31:33.462Z,20.04
2018-06-28T03:34:02.446Z,19.40
2018-06-28T03:36:31.362Z,18.76
2018-06-28T03:39:00.393Z,19.47
2018-06-28T03:41:29.399Z,19.79
2018-06-28T03:43:58.358Z,19.89
2018-06-28T03:46:27.246Z,19.62
2018-06-28T03:48:56.209Z,19.78
2018-06-28T03:51:25.172Z,19.99
2018-06-28T03:53:54.181Z,20.04
2018-06-28T03:56:23.431Z,20.23
2018-06-28T03:58:52.374Z,20.21
2018-06-28T04:01:21.583Z,20.38
2018-06-28T04:03:50.507Z,19.76
2018-06-28T04:06:19.443Z,20.13
2018-06-28T04:08:48.389Z,20.23
2018-06-28T04:11:17.367Z,20.45
2018-06-28T04:13:46.298Z,20.59
2018-06-28T04:16:15.263Z,20.63
2018-06-28T04:18:44.282Z,20.87
2018-06-28T04:21:13.234Z,20.70
2018-06-28T04:23:42.261Z,20.77
2018-06-28T04:26:11.223Z,21.21
2018-06-28T04:28:40.145Z,21.76
2018-06-28T04:31:09.198Z,23.12
2018-06-28T04:33:38.127Z,23.90
2018-06-28T04:36:07.243Z,25.05
2018-06-28T04:38:36.153Z,25.01
2018-06-28T04:41:05.169Z,24.46
2018-06-28T04:43:34.082Z,25.23
2018-06-28T04:46:03.063Z,26.42
2018-06-28T04:48:31.963Z,26.99
2018-06-28T04:51:00.919Z,27.50
2018-06-28T04:53:29.814Z,28.05
2018-06-28T04:55:58.718Z,28.27
2018-06-28T04:58:27.711Z,28.65
2018-06-28T05:00:56.621Z,29.37
2018-06-28T05:03:25.616Z,28.99
2018-06-28T05:05:54.514Z,28.22
2018-06-28T05:08:23.485Z,28.20
2018-06-28T05:10:52.396Z,28.30
2018-06-28T05:13:21.347Z,28.04
2018-06-28T05:15:50.311Z,27.65
2018-06-28T05:18:19.276Z,27.18
2018-06-28T05:20:48.383Z,27.40
2018-06-28T05:23:17.422Z,25.71
2018-06-28T05:25:46.406Z,25.01
2018-06-28T05:28:15.383Z,24.22
2018-06-28T05:30:44.471Z,24.85
2018-06-28T05:33:13.438Z,24.18
2018-06-28T05:35:42.391Z,24.37
2018-06-28T05:38:11.418Z,25.28
2018-06-28T05:40:40.322Z,24.57
2018-06-28T05:43:09.290Z,25.32
2018-06-28T05:45:38.221Z,25.74
2018-06-28T05:48:07.233Z,26.59
2018-06-28T05:50:36.139Z,26.94
2018-06-28T05:53:05.083Z,26.66
2018-06-28T05:55:34.025Z,26.82
2018-06-28T05:58:02.981Z,29.09
2018-06-28T06:00:31.953Z,31.00
2018-06-28T06:03:00.911Z,31.07
2018-06-28T06:05:29.854Z,32.63
2018-06-28T06:07:59.839Z,32.82
2018-06-28T06:10:28.807Z,31.57
2018-06-28T06:12:57.793Z,30.46
2018-06-28T06:15:26.718Z,30.19
2018-06-28T06:17:55.644Z,32.25
2018-06-28T06:20:24.680Z,32.60
2018-06-28T06:22:53.564Z,30.81
2018-06-28T06:25:22.750Z,34.00
2018-06-28T06:27:51.743Z,32.32
2018-06-28T06:30:20.752Z,31.42
2018-06-28T06:32:49.682Z,29.71
2018-06-28T06:35:18.647Z,32.60
2018-06-28T06:37:47.585Z,35.40
2018-06-28T06:40:16.938Z,35.04
2018-06-28T06:42:46.429Z,31.96
2018-06-28T06:45:15.593Z,33.19
2018-06-28T06:47:44.538Z,32.34
2018-06-28T06:50:13.554Z,31.61
2018-06-28T06:52:42.493Z,31.23
2018-06-28T06:55:11.493Z,31.13
2018-06-28T06:57:40.555Z,32.83
2018-06-28T07:00:09.538Z,33.25
2018-06-28T07:02:38.494Z,32.68
2018-06-28T07:05:07.462Z,30.82
2018-06-28T07:07:36.407Z,29.97
2018-06-28T07:10:05.658Z,29.85
2018-06-28T07:12:34.673Z,27.42
2018-06-28T07:15:03.898Z,27.06
2018-06-28T07:17:33.110Z,28.45
2018-06-28T07:20:02.360Z,29.30
2018-06-28T07:22:31.569Z,28.86
2018-06-28T07:25:00.483Z,29.45
2018-06-28T07:27:29.555Z,28.55
2018-06-28T07:29:58.499Z,26.66
2018-06-28T07:32:27.520Z,27.72
2018-06-28T07:34:56.442Z,26.02
2018-06-28T07:37:25.418Z,26.78
2018-06-28T07:39:54.412Z,27.14
2018-06-28T07:42:23.550Z,27.13
2018-06-28T07:44:52.466Z,27.34
2018-06-28T07:47:21.463Z,26.53
2018-06-28T07:49:50.398Z,27.69
2018-06-28T07:52:19.362Z,26.17
2018-06-28T07:54:48.310Z,25.67
2018-06-28T07:57:17.291Z,25.65
2018-06-28T07:59:46.202Z,25.32
2018-06-28T08:02:15.164Z,26.46
2018-06-28T08:04:44.098Z,26.32
2018-06-28T08:07:13.099Z,25.60
2018-06-28T08:09:42.120Z,25.62
2018-06-28T08:12:11.078Z,27.33
2018-06-28T08:14:39.994Z,27.37
2018-06-28T08:17:08.983Z,26.92
2018-06-28T08:19:38.375Z,26.46
2018-06-28T08:22:07.359Z,26.79
2018-06-28T08:24:36.315Z,26.62
2018-06-28T08:27:05.336Z,26.63
2018-06-28T08:29:34.268Z,26.98
2018-06-28T08:32:03.233Z,27.49
2018-06-28T08:34:32.146Z,27.51
2018-06-28T08:37:07.384Z,27.34
2018-06-28T08:39:36.371Z,26.81
2018-06-28T08:42:05.358Z,27.42
2018-06-28T08:44:34.258Z,27.15
2018-06-28T08:47:03.210Z,27.82
2018-06-28T08:49:32.126Z,28.05
2018-06-28T08:52:01.098Z,26.68
2018-06-28T08:54:30.009Z,27.13
2018-06-28T08:56:58.963Z,26.93
2018-06-28T08:59:27.914Z,26.98
2018-06-28T09:01:57.055Z,26.77
2018-06-28T09:04:26.017Z,26.77
2018-06-28T09:06:55.806Z,27.42
2018-06-28T09:09:25.026Z,27.61
2018-06-28T09:11:53.947Z,28.05
2018-06-28T09:14:22.879Z,28.45
2018-06-28T09:16:51.818Z,28.27
2018-06-28T09:19:20.813Z,28.26
2018-06-28T09:21:49.738Z,29.02
2018-06-28T09:24:18.714Z,30.02
2018-06-28T09:26:47.654Z,30.99
2018-06-28T09:29:16.615Z,30.33
2018-06-28T09:31:45.569Z,29.56
2018-06-28T09:34:14.529Z,29.32
2018-06-28T09:36:43.442Z,28.09
2018-06-28T09:39:12.762Z,29.73
2018-06-28T09:41:41.705Z,29.72
2018-06-28T09:44:10.664Z,28.23
2018-06-28T09:46:39.587Z,29.64
2018-06-28T09:49:08.666Z,28.04
2018-06-28T09:51:37.586Z,28.81
2018-06-28T09:54:06.563Z,29.42
2018-06-28T09:56:35.475Z,28.47
2018-06-28T09:59:04.437Z,29.57
2018-06-28T10:01:33.347Z,28.96
2018-06-28T10:04:02.309Z,28.29
2018-06-28T10:06:31.250Z,28.72
2018-06-28T10:09:00.259Z,28.36
2018-06-28T10:11:29.178Z,28.23
2018-06-28T10:13:58.127Z,28.33
2018-06-28T10:16:27.428Z,28.20
2018-06-28T10:18:56.453Z,27.84
2018-06-28T10:21:25.429Z,28.32
2018-06-28T10:23:54.654Z,28.57
2018-06-28T10:26:24.049Z,29.09
2018-06-28T10:28:53.051Z,28.77
2018-06-28T10:31:21.979Z,27.99
2018-06-28T10:33:50.896Z,28.79
2018-06-28T10:36:19.890Z,29.25
2018-06-28T10:38:48.806Z,30.94
2018-06-28T10:41:17.822Z,30.79
2018-06-28T10:43:46.766Z,31.83
2018-06-28T10:46:15.759Z,29.84
2018-06-28T10:48:44.752Z,29.68
2018-06-28T10:51:13.711Z,29.61
2018-06-28T10:53:42.669Z,28.66
2018-06-28T10:56:11.806Z,28.66
2018-06-28T10:58:40.753Z,28.71
2018-06-28T11:01:09.999Z,28.43
2018-06-28T11:03:38.955Z,29.10
2018-06-28T11:06:07.954Z,28.39
2018-06-28T11:08:36.875Z,29.31
2018-06-28T11:11:05.852Z,29.28
2018-06-28T11:13:34.887Z,27.71
2018-06-28T11:16:03.849Z,27.49
2018-06-28T11:18:32.837Z,28.56
2018-06-28T11:21:01.778Z,29.61
2018-06-28T11:23:30.743Z,29.85
2018-06-28T11:25:59.774Z,29.42
2018-06-28T11:28:28.745Z,30.32
2018-06-28T11:30:57.750Z,29.86
2018-06-28T11:33:26.686Z,30.03
2018-06-28T11:35:55.639Z,30.44
2018-06-28T11:38:24.606Z,30.65
2018-06-28T11:40:53.557Z,29.93
2018-06-28T11:43:22.574Z,30.78
2018-06-28T11:45:51.525Z,30.66
2018-06-28T11:48:20.487Z,30.17
2018-06-28T11:50:49.464Z,29.12
2018-06-28T11:53:18.434Z,29.05
2018-06-28T11:55:47.401Z,29.45
2018-06-28T11:58:16.402Z,29.06
2018-06-28T12:00:45.365Z,30.16
2018-06-28T12:03:14.346Z,31.13
2018-06-28T12:05:43.268Z,30.82
2018-06-28T12:08:12.234Z,31.33
2018-06-28T12:10:41.193Z,31.36
2018-06-28T12:13:10.168Z,31.20
2018-06-28T12:15:39.090Z,31.64
2018-06-28T12:18:08.046Z,31.03
2018-06-28T12:20:36.954Z,31.27
2018-06-28T12:23:06.563Z,31.88
2018-06-28T12:25:35.478Z,31.74
2018-06-28T12:28:04.624Z,31.38
2018-06-28T12:30:33.544Z,31.35
2018-06-28T12:33:02.539Z,32.07
2018-06-28T12:35:31.494Z,30.45
2018-06-28T12:38:00.537Z,29.39
2018-06-28T12:40:29.455Z,29.78
2018-06-28T12:42:58.441Z,30.47
2018-06-28T12:45:27.357Z,30.41
2018-06-28T12:48:06.605Z,31.56
2018-06-28T12:50:35.513Z,30.83
2018-06-28T12:53:05.510Z,30.38
2018-06-28T12:56:43.068Z,31.68
2018-06-28T12:59:14.274Z,31.96
2018-06-28T13:01:43.186Z,31.87
2018-06-28T13:04:12.165Z,31.61
2018-06-28T13:06:41.118Z,31.40
2018-06-28T13:09:13.351Z,31.59
2018-06-28T13:11:42.384Z,31.71
2018-06-28T13:14:11.369Z,30.32
2018-06-28T13:16:40.282Z,29.43
2018-06-28T13:19:09.370Z,28.97
2018-06-28T13:21:38.270Z,28.54
2018-06-28T13:24:07.235Z,28.51
2018-06-28T13:26:36.147Z,29.58
2018-06-28T13:29:05.141Z,30.43
2018-06-28T13:31:34.047Z,31.03
2018-06-28T13:34:03.025Z,32.00
2018-06-28T13:36:31.946Z,33.23
2018-06-28T13:39:00.953Z,32.97
2018-06-28T13:41:30.054Z,33.23
2018-06-28T13:43:58.895Z,33.34
2018-06-28T13:46:27.798Z,33.40
2018-06-28T13:48:56.794Z,32.68
2018-06-28T13:51:25.768Z,31.88
2018-06-28T13:53:54.718Z,31.96
2018-06-28T13:56:23.665Z,31.94
2018-06-28T13:58:52.597Z,32.36
2018-06-28T14:01:21.561Z,31.08
2018-06-28T14:03:50.525Z,30.69
2018-06-28T14:06:19.535Z,30.23
2018-06-28T14:08:48.445Z,30.93
2018-06-28T14:11:17.398Z,31.05
2018-06-28T14:13:46.318Z,31.41
2018-06-28T14:16:15.258Z,30.71
2018-06-28T14:18:44.239Z,31.02
2018-06-28T14:21:13.193Z,31.25
2018-06-28T14:23:42.224Z,31.34
2018-06-28T14:26:11.198Z,31.72
2018-06-28T14:28:40.094Z,31.84
2018-06-28T14:31:09.071Z,31.11
2018-06-28T14:33:38.048Z,30.99
2018-06-28T14:36:07.010Z,30.68
2018-06-28T14:38:35.951Z,31.44
2018-06-28T14:41:04.923Z,31.84
2018-06-28T14:43:33.862Z,31.82
2018-06-28T14:46:02.827Z,31.80
2018-06-28T14:48:31.747Z,31.59
2018-06-28T14:51:00.680Z,31.46
2018-06-28T14:53:29.950Z,31.19
2018-06-28T14:55:59.154Z,31.73
2018-06-28T14:58:28.212Z,31.70
2018-06-28T15:00:57.135Z,31.68
2018-06-28T15:03:26.114Z,31.46
2018-06-28T15:05:55.049Z,32.81
2018-06-28T15:08:24.029Z,32.95
2018-06-28T15:10:52.995Z,31.75
2018-06-28T15:13:21.959Z,32.33
2018-06-28T15:15:50.922Z,32.72
2018-06-28T15:18:19.894Z,32.90
2018-06-28T15:20:48.900Z,33.18
2018-06-28T15:23:17.892Z,30.55
2018-06-28T15:25:46.829Z,31.11
2018-06-28T15:28:15.826Z,30.71
2018-06-28T15:30:44.774Z,31.56
2018-06-28T15:33:13.781Z,31.42
2018-06-28T15:35:42.727Z,31.99
2018-06-28T15:38:11.779Z,31.54
2018-06-28T15:40:40.726Z,30.87
2018-06-28T15:43:09.691Z,31.66
2018-06-28T15:45:38.663Z,31.37
2018-06-28T15:48:07.939Z,32.02
2018-06-28T15:50:36.921Z,31.28
2018-06-28T15:53:05.895Z,30.27
2018-06-28T15:55:34.818Z,29.59
2018-06-28T15:58:03.753Z,30.46
2018-06-28T16:00:32.715Z,29.79
2018-06-28T16:03:01.706Z,30.10
2018-06-28T16:05:30.631Z,30.25
2018-06-28T16:07:59.581Z,30.11
2018-06-28T16:10:28.595Z,29.74
2018-06-28T16:12:57.548Z,29.67
2018-06-28T16:15:26.604Z,29.40
2018-06-28T16:17:55.544Z,29.62
2018-06-28T16:20:24.563Z,28.98
2018-06-28T16:22:53.490Z,28.99
2018-06-28T16:25:22.453Z,28.93
2018-06-28T16:27:51.359Z,29.06
2018-06-28T16:30:20.572Z,29.06
2018-06-28T16:32:49.489Z,29.05
2018-06-28T16:35:18.531Z,29.31
2018-06-28T16:37:47.442Z,29.43
2018-06-28T16:40:16.470Z,29.24
2018-06-28T16:42:45.378Z,29.39
2018-06-28T16:45:14.313Z,29.04
2018-06-28T16:47:43.656Z,28.85
2018-06-28T16:50:12.614Z,28.78
2018-06-28T16:52:41.507Z,28.97
2018-06-28T16:55:10.469Z,28.98
2018-06-28T16:57:39.419Z,29.61
2018-06-28T17:00:08.659Z,29.76
2018-06-28T17:02:37.659Z,29.15
2018-06-28T17:05:06.706Z,29.14
2018-06-28T17:07:35.720Z,28.65
2018-06-28T17:10:05.162Z,28.72
2018-06-28T17:12:34.134Z,29.57
2018-06-28T17:15:03.050Z,29.81
2018-06-28T17:17:32.015Z,30.01
2018-06-28T17:20:00.953Z,29.87
2018-06-28T17:22:29.914Z,30.03
2018-06-28T17:24:58.840Z,29.55
2018-06-28T17:27:27.873Z,29.31
2018-06-28T17:29:56.793Z,29.39
2018-06-28T17:32:25.771Z,29.30
2018-06-28T17:34:54.705Z,29.05
2018-06-28T17:37:23.685Z,29.53
2018-06-28T17:39:52.760Z,29.50
2018-06-28T17:42:21.725Z,29.44
2018-06-28T17:44:50.651Z,29.46
2018-06-28T17:47:19.617Z,29.53
2018-06-28T17:49:48.573Z,29.50
2018-06-28T17:52:17.543Z,29.50
2018-06-28T17:54:46.460Z,29.13
2018-06-28T17:57:15.450Z,29.23
2018-06-28T17:59:44.375Z,29.02
2018-06-28T18:02:13.321Z,29.17
2018-06-28T18:04:42.230Z,29.06
2018-06-28T18:07:11.198Z,28.82
2018-06-28T18:09:40.143Z,28.97
2018-06-28T18:12:09.119Z,29.10
2018-06-28T18:14:38.044Z,28.92
2018-06-28T18:17:07.014Z,28.95
2018-06-28T18:19:35.933Z,29.24
2018-06-28T18:22:04.878Z,29.41
2018-06-28T18:24:33.894Z,29.50
2018-06-28T18:27:02.860Z,29.46
2018-06-28T18:29:31.830Z,29.51
2018-06-28T18:32:00.766Z,29.26
2018-06-28T18:34:29.730Z,29.10
2018-06-28T18:36:58.633Z,29.13
2018-06-28T18:39:27.628Z,28.97
2018-06-28T18:41:56.582Z,28.63
2018-06-28T18:44:25.522Z,28.68
2018-06-28T18:46:54.541Z,28.49
2018-06-28T18:49:23.460Z,28.66
2018-06-28T18:51:52.384Z,28.38
2018-06-28T18:54:21.348Z,28.32
2018-06-28T18:56:50.255Z,28.47
2018-06-28T18:59:19.243Z,28.43
2018-06-28T19:01:48.197Z,28.38
2018-06-28T19:04:17.142Z,28.14
2018-06-28T19:06:46.064Z,27.93
2018-06-28T19:09:15.022Z,28.01
2018-06-28T19:11:44.034Z,27.87
2018-06-28T19:14:18.362Z,28.29
2018-06-28T19:16:52.370Z,28.22
2018-06-28T19:19:21.323Z,28.17
2018-06-28T19:21:55.441Z,28.04
2018-06-28T19:24:24.462Z,27.96
2018-06-28T19:26:53.451Z,27.90
2018-06-28T19:29:27.502Z,27.73
2018-06-28T19:32:01.504Z,27.74
2018-06-28T19:34:30.773Z,27.57
2018-06-28T19:36:59.678Z,27.76
2018-06-28T19:39:33.670Z,27.28
2018-06-28T19:42:07.694Z,27.52
2018-06-28T19:44:36.673Z,27.63
2018-06-28T19:47:05.614Z,27.46
2018-06-28T19:49:39.743Z,27.46
2018-06-28T19:52:13.822Z,27.25
2018-06-28T19:54:42.871Z,27.20
2018-06-28T19:57:11.767Z,27.17
2018-06-28T19:59:45.963Z,27.21
2018-06-28T20:02:20.108Z,27.24
2018-06-28T20:04:49.065Z,27.24
2018-06-28T20:07:17.974Z,27.33
2018-06-28T20:09:46.959Z,27.08
2018-06-28T20:12:21.131Z,26.93
2018-06-28T20:14:55.336Z,26.81
2018-06-28T20:17:29.454Z,26.94
2018-06-28T20:20:03.437Z,27.03
2018-06-28T20:22:32.410Z,26.98
2018-06-28T20:25:01.594Z,27.04
2018-06-28T20:27:35.743Z,26.98
2018-06-28T20:30:10.561Z,27.04
2018-06-28T20:32:44.666Z,27.23
2018-06-28T20:35:13.798Z,27.10
2018-06-28T20:37:43.596Z,27.08
2018-06-28T20:40:12.636Z,27.07
2018-06-28T20:42:41.667Z,26.96
2018-06-28T20:45:10.692Z,27.11
2018-06-28T20:47:40.294Z,27.10
2018-06-28T20:50:09.240Z,27.09
2018-06-28T20:52:38.223Z,27.08
2018-06-28T20:55:07.104Z,27.17
2018-06-28T20:57:36.061Z,27.09
2018-06-28T21:00:05.886Z,26.92
2018-06-28T21:02:34.973Z,26.79
2018-06-28T21:05:04.399Z,27.02
2018-06-28T21:07:33.345Z,27.09
2018-06-28T21:10:02.341Z,27.13
2018-06-28T21:12:31.463Z,27.05
2018-06-28T21:15:00.411Z,26.88
2018-06-28T21:17:29.382Z,26.91
2018-06-28T21:19:58.542Z,26.95
2018-06-28T21:22:27.523Z,26.95
2018-06-28T21:24:56.444Z,26.83
2018-06-28T21:27:25.853Z,26.62
2018-06-28T21:29:54.773Z,26.71
2018-06-28T21:32:23.785Z,26.93
2018-06-28T21:34:52.838Z,26.70
2018-06-28T21:37:21.845Z,26.55
2018-06-28T21:39:50.742Z,25.68
2018-06-28T21:42:19.686Z,25.90
2018-06-28T21:44:48.748Z,25.90
2018-06-28T21:47:17.757Z,26.23
2018-06-28T21:49:46.673Z,26.14
2018-06-28T21:52:15.674Z,26.52
2018-06-28T21:54:44.582Z,26.67
2018-06-28T21:57:13.554Z,26.19
2018-06-28T21:59:42.446Z,26.08
2018-06-28T22:02:11.411Z,25.85
2018-06-28T22:04:40.333Z,26.01
2018-06-28T22:07:09.279Z,26.52
2018-06-28T22:09:38.223Z,26.53
2018-06-28T22:12:07.204Z,26.58
2018-06-28T22:14:36.523Z,26.47
2018-06-28T22:17:05.754Z,26.55
2018-06-28T22:19:34.693Z,26.78
2018-06-28T22:22:03.611Z,26.11
2018-06-28T22:24:32.564Z,26.24
2018-06-28T22:27:01.462Z,26.53
2018-06-28T22:29:30.415Z,26.86
2018-06-28T22:31:59.330Z,27.05
2018-06-28T22:34:28.273Z,27.18
2018-06-28T22:36:57.213Z,26.97
2018-06-28T22:39:26.234Z,27.26
2018-06-28T22:41:55.171Z,27.34
2018-06-28T22:44:24.148Z,27.49
2018-06-28T22:46:53.063Z,27.38
2018-06-28T22:49:22.037Z,27.48
2018-06-28T22:51:50.982Z,27.56
2018-06-28T22:54:19.922Z,27.57
2018-06-28T22:56:48.842Z,27.58
2018-06-28T22:59:17.792Z,27.51
2018-06-28T23:01:46.721Z,27.38
2018-06-28T23:04:15.690Z,27.31
2018-06-28T23:06:44.616Z,27.28
2018-06-28T23:09:13.598Z,27.18
2018-06-28T23:11:42.529Z,27.14
2018-06-28T23:14:11.485Z,27.14
2018-06-28T23:16:40.375Z,27.21
2018-06-28T23:19:09.334Z,27.21
2018-06-28T23:21:38.294Z,26.76
2018-06-28T23:24:07.264Z,26.96
2018-06-28T23:26:36.230Z,26.54
2018-06-28T23:29:05.158Z,26.49
2018-06-28T23:31:34.114Z,26.46
2018-06-28T23:34:03.055Z,26.73
2018-06-28T23:36:31.977Z,26.55
2018-06-28T23:39:00.899Z,25.94
2018-06-28T23:41:29.867Z,26.13
2018-06-28T23:43:58.958Z,26.29
2018-06-28T23:46:27.811Z,26.52
2018-06-28T23:48:56.735Z,26.66
2018-06-28T23:51:25.704Z,25.96
2018-06-28T23:53:54.622Z,26.23
2018-06-28T23:56:23.564Z,26.52
2018-06-28T23:58:52.483Z,26.53
